x

Destruction Island, Wa (desw1) Weather Station

8:00 - Thu 27th Jul 2017 All times are PDT. -7 hours from GMT.

  • Wind
    10mph, 10mph gusts
  • Air Temp 54°f
  • Sea Pressure 1021.7mb
  • Destruction Island, Wa
  • Destruction Island, Wa

More Historic Weather Station data

Upgrade to MSW Pro to gain access to the past 30 days of data for over 8000 Wavebouys and Weather Stations around the globe.

Join Pro

Comparision Forecast

View Surf forecast
   
jeu. 07/27 8:00 10 10 mph 1021.7mb 54f
7:00 8 8 mph 1021.5mb 55f
6:00 10 11 mph 1021mb 54f
5:00 10 11 mph 1020.8mb 53f
4:00 13 13 mph 1020.4mb 54f
3:00 13 13 mph 1020.5mb 54f
2:00 16 16 mph 1020.4mb 53f
1:00 15 15 mph 1020.3mb 53f
12:00 14 14 mph 1020.3mb 55f
mer. 07/26 11:00 15 15 mph 1019.9mb 54f
10:00 16 17 mph 1019.8mb 54f
9:00 18 20 mph 1019.5mb 54f
8:00 18 18 mph 1019.6mb 55f
7:00 23 24 mph 1019.7mb 55f
6:00 23 24 mph 1019.8mb 56f
5:00 17 18 mph 1020.3mb 56f
4:00 23 24 mph 1020.4mb 57f
3:00 21 22 mph 1020.5mb 56f
2:00 20 20 mph 1020.5mb 56f
1:00 16 16 mph 1020.6mb 56f
12:00 16 16 mph 1020.6mb 55f
11:00 13 14 mph 1020.5mb 55f
10:00 11 13 mph 1020.1mb 55f
9:00 9 10 mph 1020.2mb 55f
8:00 8 9 mph 1020.1mb 54f
7:00 8 8 mph 1020mb 53f
6:00 9 9 mph 1019.7mb 52f
5:00 11 11 mph 1019.4mb 53f
4:00 14 14 mph 1019.4mb 53f
3:00 17 18 mph 1018.9mb 54f
2:00 21 21 mph 1019.1mb 52f
1:00 17 18 mph 1018.8mb 52f
12:00 22 22 mph 1018.8mb 53f
mar. 07/25 11:00 18 20 mph 1018.5mb 52f
10:00 22 23 mph 1018.4mb 53f
9:00 26 28 mph 1018.1mb 54f
8:00 25 26 mph 1018mb 54f
7:00 26 29 mph 1018mb 55f
6:00 25 26 mph 1017.9mb 56f
5:00 24 25 mph 1018.1mb 56f
4:00 22 23 mph 1018.4mb 56f
3:00 17 18 mph 1018.7mb 57f
2:00 13 14 mph 1019mb 59f
1:00 11 11 mph 1018.9mb 58f
12:00 11 13 mph 1018.9mb 58f
11:00 7 7 mph 1018.7mb 57f
10:00 2 3 mph 1018.5mb 57f
9:00 6 6 mph 1018.1mb 55f
8:00 5 6 mph 1017.8mb 55f
7:00 5 6 mph 1017.5mb 53f
6:00 6 6 mph 1017.1mb 53f
5:00 9 9 mph 1016.7mb 53f
4:00 10 10 mph 1016.7mb 52f
3:00 9 9 mph 1016.7mb 52f
2:00 15 16 mph 1016.6mb 53f
1:00 18 18 mph 1016.2mb 53f
12:00 18 20 mph 1016.1mb 54f
lun. 07/24 11:00 23 24 mph 1015.9mb 54f
10:00 23 24 mph 1015.8mb 54f
9:00 24 25 mph 1015.5mb 54f
8:00 24 25 mph 1015.3mb 55f
7:00 24 25 mph 1015.4mb 56f
6:00 17 20 mph 1015.8mb 57f
5:00 14 16 mph 1016mb 58f
4:00 7 7 mph 1016.6mb 56f
3:00 6 7 mph 1017mb 57f
2:00 6 7 mph 1017.1mb 57f
1:00 7 8 mph 1017.3mb 57f
12:00 5 6 mph 1017.6mb 59f
11:00 5 6 mph 1017.7mb 58f
10:00 3 5 mph 1017.8mb 56f
9:00 2 2 mph 1018mb 55f
8:00 5 5 mph 1017.9mb 53f
7:00  -  0 mph 1017.9mb 53f
6:00  -  0 mph 1017.6mb 53f
5:00 2 2 mph 1017.4mb 53f
4:00 5 6 mph 1017.3mb 53f
3:00 6 6 mph 1017.5mb 53f
2:00 7 7 mph 1017.5mb 54f
1:00 8 9 mph 1017.5mb 54f
12:00 15 16 mph 1017.7mb 55f
dim. 07/23 11:00 16 17 mph 1017.5mb 55f
10:00 21 21 mph 1017.7mb 56f
9:00 22 24 mph 1017.6mb 56f
8:00 22 23 mph 1017.8mb 57f
7:00 26 29 mph 1017.9mb 57f
6:00 25 28 mph 1018.3mb 58f